TCBA weather

Tucabia Oval Helicopter Landing Site
Tucabia, New South Wales, Australia

Public forecast

Using degrees Celsius for public forecast. Weather courtesy of forecast.io.

METAR (pilot weather report)

Closest report is Grafton Airport, 7.2 nm (13.2 km) SSW. Retrieved 2019/04/20 10:00 UTC (30 minutes ago):

YGFN 201000Z AUTO 19004KT 9999 // SCT025 20/18 Q1024

TAF (pilot weather forecast)

Closest forecast is Gold Coast Airport, 92.2 nm (170.8 km) NNE. Retrieved 2019/04/20 06:00 UTC (5 hours ago):

TAF YBCG 200504Z 2006/2106 13014KT 9999 -SHRA FEW015 SCT025 BKN040 FM201200 15008KT 9999 -SHRA SCT015 SCT030 FM202300 12014KT 9999 -SHRA SCT020 SCT030 INTER 2006/2018 3000 SHRA BKN012